createdAt,value
2022-10-20T00:03:10.141Z,9.57
2022-10-20T00:07:11.522Z,10.70
2022-10-20T00:11:15.533Z,9.53
2022-10-20T00:15:16.859Z,9.77
2022-10-20T00:19:17.954Z,9.33
2022-10-20T00:23:19.643Z,9.17
2022-10-20T00:27:20.817Z,9.30
2022-10-20T00:31:23.827Z,8.33
2022-10-20T00:35:25.004Z,10.07
2022-10-20T00:39:26.089Z,8.90
2022-10-20T00:43:49.182Z,8.23
2022-10-20T00:47:54.068Z,8.97
2022-10-20T00:51:55.242Z,8.87
2022-10-20T00:55:58.942Z,9.53
2022-10-20T01:00:00.186Z,9.77
2022-10-20T01:04:02.112Z,9.90
2022-10-20T01:08:03.680Z,10.37
2022-10-20T01:12:27.872Z,9.00
2022-10-20T01:16:53.687Z,9.43
2022-10-20T01:21:18.395Z,8.53
2022-10-20T01:25:39.977Z,8.67
2022-10-20T01:29:50.865Z,9.50
2022-10-20T01:34:04.406Z,10.27
2022-10-20T01:38:15.446Z,9.90
2022-10-20T01:42:20.433Z,9.00
2022-10-20T01:46:24.734Z,9.63
2022-10-20T01:50:26.739Z,10.10
2022-10-20T01:54:29.613Z,9.93
2022-10-20T01:58:40.086Z,9.87
2022-10-20T02:03:03.454Z,11.10
2022-10-20T02:07:08.449Z,9.90
2022-10-20T02:11:13.450Z,10.50
2022-10-20T02:15:18.372Z,9.80
2022-10-20T02:19:22.563Z,10.80
2022-10-20T02:23:24.123Z,11.20
2022-10-20T02:27:36.924Z,10.63
2022-10-20T02:31:38.310Z,9.60
2022-10-20T02:35:43.019Z,10.97
2022-10-20T02:39:44.120Z,10.63
2022-10-20T02:43:45.323Z,11.87
2022-10-20T02:47:46.636Z,10.10
2022-10-20T02:51:47.817Z,10.60
2022-10-20T02:55:48.915Z,11.33
2022-10-20T02:59:50.097Z,12.30
2022-10-20T03:03:51.166Z,12.57
2022-10-20T03:07:53.070Z,11.80
2022-10-20T03:11:54.248Z,11.37
2022-10-20T03:15:55.543Z,12.30
2022-10-20T03:19:56.750Z,13.77
2022-10-20T03:23:57.951Z,11.73
2022-10-20T03:27:59.236Z,11.37
2022-10-20T03:32:02.314Z,12.93
2022-10-20T03:36:04.439Z,12.10
2022-10-20T03:40:06.593Z,12.60
2022-10-20T03:44:09.775Z,11.50
2022-10-20T03:48:11.461Z,11.90
2022-10-20T03:52:12.540Z,11.47
2022-10-20T03:56:17.532Z,10.87
2022-10-20T04:00:18.743Z,12.37
2022-10-20T04:04:19.967Z,11.30
2022-10-20T04:08:21.064Z,11.90
2022-10-20T04:12:23.276Z,11.10
2022-10-20T04:16:24.996Z,12.40
2022-10-20T04:20:26.093Z,13.93
2022-10-20T04:24:27.188Z,14.30
2022-10-20T04:28:28.770Z,13.13
2022-10-20T04:32:29.871Z,13.43
2022-10-20T04:36:31.057Z,13.53
2022-10-20T04:40:32.140Z,13.27
2022-10-20T04:44:33.326Z,13.33
2022-10-20T04:48:34.640Z,13.33
2022-10-20T04:52:35.821Z,12.13
2022-10-20T04:56:37.015Z,12.90
2022-10-20T05:00:38.206Z,13.40
2022-10-20T05:04:39.390Z,13.87
2022-10-20T05:08:42.031Z,13.77
2022-10-20T05:12:43.206Z,14.17
2022-10-20T05:16:44.521Z,13.77
2022-10-20T05:21:07.221Z,15.20
2022-10-20T05:24:48.698Z,15.80
2022-10-20T05:28:50.877Z,15.70
2022-10-20T05:32:52.058Z,14.73
2022-10-20T05:36:53.753Z,15.53
2022-10-20T05:40:54.958Z,14.37
2022-10-20T05:44:56.150Z,15.20
2022-10-20T05:48:59.948Z,14.40
2022-10-20T05:53:01.134Z,16.63
2022-10-20T05:57:02.476Z,16.37
2022-10-20T06:01:07.861Z,16.10
2022-10-20T06:05:09.048Z,16.10
2022-10-20T06:09:11.341Z,16.90
2022-10-20T06:13:13.035Z,15.87
2022-10-20T06:17:14.219Z,17.10
2022-10-20T06:21:21.012Z,17.03
2022-10-20T06:25:22.204Z,16.43
2022-10-20T06:29:23.479Z,19.10
2022-10-20T06:33:24.976Z,17.17
2022-10-20T06:37:26.188Z,18.70
2022-10-20T06:41:27.978Z,18.93
2022-10-20T06:45:29.067Z,19.43
2022-10-20T06:49:30.438Z,19.60
2022-10-20T06:53:34.141Z,20.53
2022-10-20T06:57:35.321Z,19.20
2022-10-20T07:01:38.299Z,19.13
2022-10-20T07:05:39.598Z,18.40
2022-10-20T07:09:40.797Z,21.27
2022-10-20T07:13:42.501Z,20.50
2022-10-20T07:17:43.613Z,19.83
2022-10-20T07:21:45.898Z,19.43
2022-10-20T07:25:47.234Z,20.57
2022-10-20T07:29:48.400Z,20.97
2022-10-20T07:34:07.082Z,19.87
2022-10-20T07:37:53.216Z,22.10
2022-10-20T07:41:54.398Z,21.70
2022-10-20T07:45:55.893Z,21.63
2022-10-20T07:49:57.063Z,23.33
2022-10-20T07:54:06.765Z,18.37
2022-10-20T07:58:07.839Z,19.90
2022-10-20T08:02:11.162Z,23.03
2022-10-20T08:06:12.415Z,20.77
2022-10-20T08:10:13.514Z,19.47
2022-10-20T08:14:14.718Z,20.37
2022-10-20T08:18:20.342Z,20.53
2022-10-20T08:22:21.668Z,21.07
2022-10-20T08:26:24.950Z,21.47
2022-10-20T08:30:26.111Z,21.40
2022-10-20T08:34:27.329Z,26.17
2022-10-20T08:38:28.458Z,22.70
2022-10-20T08:42:35.941Z,21.60
2022-10-20T08:46:39.427Z,22.30
2022-10-20T08:50:46.712Z,21.57
2022-10-20T08:54:51.695Z,22.90
2022-10-20T08:58:52.916Z,22.10
2022-10-20T09:02:54.953Z,23.57
2022-10-20T09:06:59.571Z,22.20
2022-10-20T09:11:02.441Z,20.63
2022-10-20T09:15:04.086Z,22.03
2022-10-20T09:19:08.338Z,21.90
2022-10-20T09:23:38.987Z,21.40
2022-10-20T09:27:22.641Z,21.77
2022-10-20T09:31:33.138Z,21.43
2022-10-20T09:35:35.850Z,21.53
2022-10-20T09:39:56.113Z,23.03
2022-10-20T09:44:03.926Z,20.57
2022-10-20T09:48:17.591Z,20.57
2022-10-20T09:52:30.530Z,21.10
2022-10-20T09:56:34.451Z,20.37
2022-10-20T10:00:39.812Z,21.40
2022-10-20T10:04:44.548Z,20.87
2022-10-20T10:08:46.754Z,22.40
2022-10-20T10:12:56.885Z,21.43
2022-10-20T10:16:59.373Z,20.17
2022-10-20T10:21:04.101Z,20.40
2022-10-20T10:25:07.573Z,21.63
2022-10-20T10:29:21.140Z,22.43
2022-10-20T10:33:27.386Z,20.47
2022-10-20T10:37:33.859Z,19.50
2022-10-20T10:41:49.233Z,22.97
2022-10-20T10:45:53.593Z,20.20
2022-10-20T10:50:18.868Z,21.47
2022-10-20T10:54:30.033Z,21.10
2022-10-20T10:58:46.898Z,20.63
2022-10-20T11:02:51.824Z,20.87
2022-10-20T11:06:59.480Z,21.37
2022-10-20T11:11:10.780Z,20.87
2022-10-20T11:15:19.061Z,21.33
2022-10-20T11:19:39.303Z,20.50
2022-10-20T11:23:56.444Z,19.20
2022-10-20T11:27:58.943Z,20.07
2022-10-20T11:32:26.974Z,19.30
2022-10-20T11:36:48.656Z,19.67
2022-10-20T11:41:05.920Z,19.40
2022-10-20T11:45:29.373Z,19.93
2022-10-20T11:49:32.646Z,19.63
2022-10-20T11:54:09.925Z,21.60
2022-10-20T11:58:17.491Z,20.50
2022-10-20T12:02:37.530Z,21.37
2022-10-20T12:06:54.543Z,21.20
2022-10-20T12:11:08.289Z,20.60
2022-10-20T12:15:21.912Z,21.53
2022-10-20T12:19:26.889Z,21.40
2022-10-20T12:23:48.815Z,19.90
2022-10-20T12:28:10.377Z,20.60
2022-10-20T12:32:30.737Z,22.00
2022-10-20T12:36:37.695Z,24.47
2022-10-20T12:40:49.076Z,24.03
2022-10-20T12:44:51.635Z,24.53
2022-10-20T12:48:56.742Z,22.00
2022-10-20T12:53:10.925Z,22.97
2022-10-20T12:57:28.225Z,23.57
2022-10-20T13:01:29.394Z,23.27
2022-10-20T13:05:43.723Z,24.93
2022-10-20T13:09:57.970Z,23.07
2022-10-20T13:14:13.798Z,23.20
2022-10-20T13:18:27.974Z,23.70
2022-10-20T13:22:47.996Z,23.83
2022-10-20T13:26:54.334Z,21.97
2022-10-20T13:30:59.311Z,21.80
2022-10-20T13:35:13.454Z,23.37
2022-10-20T13:39:21.354Z,23.00
2022-10-20T13:43:56.800Z,24.33
2022-10-20T13:48:15.409Z,21.50
2022-10-20T13:52:17.093Z,21.67
2022-10-20T13:56:37.220Z,23.93
2022-10-20T14:00:38.449Z,25.00
2022-10-20T14:04:39.622Z,22.33
2022-10-20T14:08:43.865Z,23.20
2022-10-20T14:12:45.187Z,24.33
2022-10-20T14:16:50.389Z,26.73
2022-10-20T14:21:02.121Z,23.60
2022-10-20T14:25:07.114Z,20.87
2022-10-20T14:29:10.895Z,24.67
2022-10-20T14:33:15.275Z,23.47
2022-10-20T14:37:20.179Z,25.50
2022-10-20T14:41:35.774Z,23.37
2022-10-20T14:45:36.928Z,22.30
2022-10-20T14:49:41.607Z,21.20
2022-10-20T14:53:43.287Z,26.50
2022-10-20T14:57:45.985Z,24.83
2022-10-20T15:02:12.287Z,27.10
2022-10-20T15:06:17.857Z,26.30
2022-10-20T15:10:25.359Z,25.90
2022-10-20T15:14:26.746Z,28.00
2022-10-20T15:18:28.842Z,24.70
2022-10-20T15:22:30.026Z,24.90
2022-10-20T15:26:31.607Z,27.00
2022-10-20T15:30:33.665Z,28.47
2022-10-20T15:34:35.158Z,30.53
2022-10-20T15:38:36.345Z,29.57
2022-10-20T15:42:37.811Z,35.27
2022-10-20T15:46:40.942Z,29.10
2022-10-20T15:50:42.001Z,31.00
2022-10-20T15:54:43.295Z,32.10
2022-10-20T15:58:44.878Z,27.43
2022-10-20T16:02:46.655Z,29.67
2022-10-20T16:06:48.052Z,31.00
2022-10-20T16:10:49.147Z,27.03
2022-10-20T16:14:50.230Z,28.73
2022-10-20T16:18:51.327Z,30.13
2022-10-20T16:22:53.401Z,27.47
2022-10-20T16:26:54.523Z,29.10
2022-10-20T16:31:07.139Z,32.33
2022-10-20T16:35:09.282Z,27.73
2022-10-20T16:39:11.758Z,27.93
2022-10-20T16:43:12.838Z,32.10
2022-10-20T16:47:14.040Z,26.93
2022-10-20T16:51:16.328Z,27.30
2022-10-20T16:55:17.550Z,28.50
2022-10-20T16:59:18.666Z,26.10
2022-10-20T17:03:20.441Z,28.40
2022-10-20T17:07:21.945Z,26.90
2022-10-20T17:11:26.282Z,30.40
2022-10-20T17:15:27.951Z,27.07
2022-10-20T17:19:29.210Z,28.53
2022-10-20T17:23:32.606Z,30.70
2022-10-20T17:27:33.790Z,27.33
2022-10-20T17:31:35.820Z,26.47
2022-10-20T17:35:37.251Z,25.80
2022-10-20T17:39:38.522Z,24.80
2022-10-20T17:43:40.550Z,26.83
2022-10-20T17:47:41.905Z,25.87
2022-10-20T17:51:43.530Z,25.30
2022-10-20T17:55:44.783Z,31.50
2022-10-20T17:59:52.930Z,36.87
2022-10-20T18:03:55.678Z,30.53
2022-10-20T18:07:56.867Z,32.17
2022-10-20T18:11:58.263Z,28.73
2022-10-20T18:15:59.433Z,30.10
2022-10-20T18:20:00.624Z,34.40
2022-10-20T18:24:04.842Z,35.40
2022-10-20T18:28:08.053Z,31.00
2022-10-20T18:32:09.257Z,30.90
2022-10-20T18:36:13.361Z,33.67
2022-10-20T18:40:14.676Z,33.97
2022-10-20T18:44:18.014Z,27.27
2022-10-20T18:48:19.234Z,29.57
2022-10-20T18:52:20.329Z,26.00
2022-10-20T18:56:23.827Z,28.60
2022-10-20T19:00:25.029Z,27.00
2022-10-20T19:04:26.507Z,27.00
2022-10-20T19:08:28.672Z,24.93
2022-10-20T19:12:29.952Z,25.40
2022-10-20T19:16:33.727Z,26.67
2022-10-20T19:20:34.813Z,30.03
2022-10-20T19:24:37.913Z,29.87
2022-10-20T19:28:45.758Z,35.07
2022-10-20T19:32:48.866Z,29.53
2022-10-20T19:36:50.259Z,31.73
2022-10-20T19:40:53.260Z,31.17
2022-10-20T19:44:55.129Z,27.17
2022-10-20T19:48:56.862Z,30.87
2022-10-20T19:52:58.874Z,36.93
2022-10-20T19:57:00.158Z,33.20
2022-10-20T20:01:01.770Z,16.50
2022-10-20T20:05:05.084Z,23.10
2022-10-20T20:09:08.561Z,29.07
2022-10-20T20:13:09.801Z,27.87
2022-10-20T20:17:11.216Z,33.40
2022-10-20T20:21:13.854Z,28.40
2022-10-20T20:25:15.374Z,26.30
2022-10-20T20:29:16.526Z,27.77
2022-10-20T20:33:17.632Z,27.07
2022-10-20T20:37:20.414Z,31.57
2022-10-20T20:41:23.515Z,30.10
2022-10-20T20:45:24.623Z,33.07
2022-10-20T20:49:25.694Z,31.37
2022-10-20T20:53:26.905Z,33.50
2022-10-20T20:57:28.654Z,30.67
2022-10-20T21:01:31.246Z,35.37
2022-10-20T21:05:36.287Z,32.50
2022-10-20T21:09:37.525Z,36.30
2022-10-20T21:13:40.100Z,34.70
2022-10-20T21:17:41.308Z,33.13
2022-10-20T21:21:53.886Z,32.13
2022-10-20T21:25:55.102Z,31.23
2022-10-20T21:29:56.359Z,26.83
2022-10-20T21:34:00.285Z,30.70
2022-10-20T21:38:01.511Z,28.33
2022-10-20T21:42:02.729Z,27.10
2022-10-20T21:46:11.035Z,28.70
2022-10-20T21:50:12.612Z,27.03
2022-10-20T21:54:16.574Z,28.57
2022-10-20T21:58:17.782Z,26.30
2022-10-20T22:02:18.959Z,27.40
2022-10-20T22:06:23.273Z,25.10
2022-10-20T22:10:24.457Z,28.33
2022-10-20T22:14:25.647Z,23.80
2022-10-20T22:18:27.164Z,23.40
2022-10-20T22:22:30.241Z,26.50
2022-10-20T22:26:31.645Z,26.60
2022-10-20T22:30:34.038Z,25.67
2022-10-20T22:34:35.117Z,25.03
2022-10-20T22:38:36.279Z,25.37
2022-10-20T22:42:38.098Z,22.87
2022-10-20T22:46:39.496Z,25.60
2022-10-20T22:50:40.991Z,24.40
2022-10-20T22:54:42.186Z,21.10
2022-10-20T22:58:43.872Z,21.40
2022-10-20T23:02:45.366Z,20.10
2022-10-20T23:06:46.548Z,19.73
2022-10-20T23:10:51.537Z,19.73
2022-10-20T23:14:52.731Z,19.77
2022-10-20T23:18:53.913Z,19.97
2022-10-20T23:22:55.105Z,19.90
2022-10-20T23:26:57.184Z,21.03
2022-10-20T23:31:11.001Z,17.83
2022-10-20T23:35:12.303Z,17.43
2022-10-20T23:39:13.749Z,20.27
2022-10-20T23:43:14.847Z,20.00
2022-10-20T23:47:16.028Z,19.23
2022-10-20T23:51:17.257Z,20.40
2022-10-20T23:55:18.761Z,21.10
2022-10-20T23:59:19.961Z,23.27
